Time;durP1;ratioP1;P1;durP2;ratioP2;P2;SDS_P1;SDS_P2;PMS_P1;PMS_P2;Temp;Humidity;BMP_temperature;BMP_pressure;BME280_temperature;BME280_humidity;BME280_pressure;Samples;Min_cycle;Max_cycle;Signal;HPM_P1;HPM_P2
2022/03/21 00:01:20;;;;;;;52.55;28.92;;;6.70;99.90;;;;;;5075539;28;20289;-76
2022/03/21 00:03:46;;;;;;;51.00;28.50;;;6.70;99.90;;;;;;5075677;28;20246;-84
2022/03/21 00:06:12;;;;;;;57.20;31.02;;;6.80;99.90;;;;;;5075743;28;20273;-86
2022/03/21 00:08:37;;;;;;;64.03;30.63;;;6.80;99.90;;;;;;5076269;28;20159;-78
2022/03/21 00:11:03;;;;;;;55.00;31.23;;;6.60;99.90;;;;;;5076160;28;20320;-79
2022/03/21 00:13:29;;;;;;;51.72;29.80;;;6.50;99.90;;;;;;5075605;28;20166;-84
2022/03/21 00:15:55;;;;;;;47.17;26.42;;;6.30;99.90;;;;;;5075599;28;20202;-81
2022/03/21 00:18:23;;;;;;;48.55;28.48;;;6.40;99.90;;;;;;5075238;28;20232;-85
2022/03/21 00:20:50;;;;;;;53.00;30.23;;;6.60;99.90;;;;;;5075428;28;20209;-81
2022/03/21 00:23:20;;;;;;;51.80;28.75;;;6.70;99.90;;;;;;5075172;28;20207;-83
2022/03/21 00:25:45;;;;;;;48.67;28.15;;;6.60;99.90;;;;;;5075156;28;20174;-80
2022/03/21 00:28:12;;;;;;;50.53;29.67;;;6.60;99.90;;;;;;5074916;28;20232;-85
2022/03/21 00:30:40;;;;;;;51.60;29.50;;;6.60;99.90;;;;;;5075896;28;20173;-83
2022/03/21 00:33:06;;;;;;;47.33;29.65;;;6.60;99.90;;;;;;5075880;28;20169;-81
2022/03/21 00:35:32;;;;;;;54.08;29.80;;;6.50;99.90;;;;;;5088157;28;20167;-77
2022/03/21 00:37:58;;;;;;;48.78;29.35;;;6.70;99.90;;;;;;5080960;28;20590;-82
2022/03/21 00:40:24;;;;;;;51.13;29.60;;;6.50;99.90;;;;;;5075020;28;20273;-85
2022/03/21 00:42:51;;;;;;;55.00;31.35;;;6.50;99.90;;;;;;5075114;28;20240;-84
2022/03/21 00:45:18;;;;;;;47.33;28.80;;;6.50;99.90;;;;;;5075291;28;20167;-80
2022/03/21 00:47:46;;;;;;;45.40;29.33;;;6.50;99.90;;;;;;5074993;28;20541;-84
2022/03/21 00:50:13;;;;;;;46.60;28.85;;;6.60;99.90;;;;;;5075368;28;20162;-80
2022/03/21 00:52:57;;;;;;;50.92;30.10;;;6.50;99.90;;;;;;5074734;28;20642;-79
2022/03/21 00:55:31;;;;;;;48.50;29.48;;;6.40;99.90;;;;;;5075267;28;20261;-82
2022/03/21 00:57:58;;;;;;;51.15;28.92;;;6.40;99.90;;;;;;5075048;28;20178;-84
2022/03/21 01:00:29;;;;;;;51.20;30.67;;;6.50;99.90;;;;;;5075259;28;20198;-81
2022/03/21 01:02:56;;;;;;;48.90;30.02;;;6.50;99.90;;;;;;5074704;28;20240;-84
2022/03/21 01:05:22;;;;;;;51.45;28.80;;;6.40;99.90;;;;;;5073706;28;20158;-78
2022/03/21 01:07:50;;;;;;;45.92;27.05;;;6.30;99.90;;;;;;5074330;28;20236;-78
2022/03/21 01:10:18;;;;;;;54.92;30.80;;;6.20;99.90;;;;;;5074906;28;21157;-77
2022/03/21 01:12:44;;;;;;;50.45;30.00;;;6.30;99.90;;;;;;5086057;28;20170;-78
2022/03/21 01:15:14;;;;;;;51.33;30.73;;;6.40;99.90;;;;;;5088621;28;20163;-78
2022/03/21 01:17:40;;;;;;;53.05;30.50;;;6.40;99.90;;;;;;5088777;28;20262;-77
2022/03/21 01:20:06;;;;;;;45.97;29.95;;;6.30;99.90;;;;;;5085134;28;20206;-78
2022/03/21 01:22:32;;;;;;;53.35;30.17;;;6.40;99.90;;;;;;5075625;28;20163;-82
2022/03/21 01:24:57;;;;;;;48.88;29.35;;;6.40;99.90;;;;;;5074911;28;20204;-78
2022/03/21 01:27:23;;;;;;;56.65;29.70;;;6.40;99.90;;;;;;5074100;28;20216;-80
2022/03/21 01:29:49;;;;;;;52.45;29.63;;;6.40;99.90;;;;;;5073699;28;20166;-82
2022/03/21 01:32:14;;;;;;;60.55;30.90;;;6.20;99.90;;;;;;5073625;28;20158;-77
2022/03/21 01:34:40;;;;;;;46.70;29.20;;;6.20;99.90;;;;;;5073775;28;20202;-77
2022/03/21 01:37:06;;;;;;;61.08;31.48;;;6.10;99.90;;;;;;5073568;28;20560;-83
2022/03/21 01:39:32;;;;;;;53.78;31.30;;;6.10;99.90;;;;;;5073458;28;20162;-84
2022/03/21 01:41:57;;;;;;;46.28;29.98;;;6.10;99.90;;;;;;5073468;28;20222;-78
2022/03/21 01:44:23;;;;;;;55.15;29.98;;;6.10;99.90;;;;;;5073456;28;20167;-80
2022/03/21 01:46:48;;;;;;;62.25;32.95;;;6.10;99.90;;;;;;5073722;28;20692;-80
2022/03/21 01:49:15;;;;;;;47.85;29.75;;;6.00;99.90;;;;;;5073595;28;20305;-82
2022/03/21 01:51:42;;;;;;;48.55;30.75;;;6.10;99.90;;;;;;5073167;28;20167;-77
2022/03/21 01:56:53;;;;;;;50.03;30.40;;;6.00;99.90;;;;;;5072849;28;20197;-81
2022/03/21 01:59:19;;;;;;;53.55;31.40;;;6.00;99.90;;;;;;5073371;28;20170;-84
2022/03/21 02:01:45;;;;;;;54.40;30.95;;;6.00;99.90;;;;;;5071846;28;20587;-83
2022/03/21 02:04:11;;;;;;;50.97;30.08;;;6.00;99.90;;;;;;5073587;28;20158;-85
2022/03/21 02:06:41;;;;;;;60.03;31.30;;;6.10;99.90;;;;;;5073388;28;20236;-78
2022/03/21 02:09:07;;;;;;;53.60;31.45;;;6.20;99.90;;;;;;5072231;28;20158;-81
2022/03/21 02:11:33;;;;;;;55.42;31.55;;;6.20;99.90;;;;;;5073462;28;20167;-79
2022/03/21 02:14:01;;;;;;;55.15;30.27;;;6.00;99.90;;;;;;5073101;28;20635;-82
2022/03/21 02:16:28;;;;;;;56.72;31.08;;;5.80;99.90;;;;;;5072906;28;20187;-79
2022/03/21 02:18:57;;;;;;;49.78;29.77;;;5.60;99.90;;;;;;5073054;28;20166;-77
2022/03/21 02:21:42;;;;;;;45.70;29.55;;;5.60;99.90;;;;;;5072951;28;20252;-77
2022/03/21 02:24:28;;;;;;;51.40;30.80;;;5.60;99.90;;;;;;5072987;28;20164;-80
2022/03/21 02:26:56;;;;;;;49.22;30.70;;;5.70;99.90;;;;;;5072659;28;20289;-80
2022/03/21 02:29:25;;;;;;;52.83;29.75;;;5.80;99.90;;;;;;5073263;28;20173;-83
2022/03/21 02:31:52;;;;;;;54.33;29.48;;;5.70;99.90;;;;;;5073609;28;20197;-79
2022/03/21 02:34:20;;;;;;;55.10;30.83;;;5.40;99.90;;;;;;5073363;28;20161;-85
2022/03/21 02:36:46;;;;;;;53.60;28.77;;;5.50;99.90;;;;;;5073226;28;20273;-85
2022/03/21 02:39:12;;;;;;;54.55;31.05;;;5.60;99.90;;;;;;5073286;28;20224;-77
2022/03/21 02:41:38;;;;;;;58.38;32.85;;;5.50;99.90;;;;;;5072257;28;20202;-77
2022/03/21 02:44:04;;;;;;;57.03;30.30;;;5.60;99.90;;;;;;5072271;28;20242;-77
2022/03/21 02:46:29;;;;;;;52.10;30.55;;;5.60;99.90;;;;;;5071933;28;20689;-77
2022/03/21 02:48:56;;;;;;;54.65;32.03;;;5.50;99.90;;;;;;5072048;28;20635;-76
2022/03/21 02:51:25;;;;;;;52.08;29.23;;;5.40;99.90;;;;;;5071911;28;20220;-77
2022/03/21 02:53:52;;;;;;;54.45;30.20;;;5.40;99.90;;;;;;5072323;28;20155;-84
2022/03/21 02:56:20;;;;;;;50.25;30.42;;;5.40;99.90;;;;;;5072091;28;20183;-77
2022/03/21 02:58:48;;;;;;;58.75;31.63;;;5.50;99.90;;;;;;5072144;28;20506;-80
2022/03/21 03:01:18;;;;;;;55.67;30.05;;;5.60;99.90;;;;;;5072595;28;20559;-79
2022/03/21 03:03:45;;;;;;;48.25;29.05;;;5.80;99.90;;;;;;5072610;28;20237;-77
2022/03/21 03:06:12;;;;;;;55.80;28.52;;;5.80;99.90;;;;;;5073116;28;20202;-79
2022/03/21 03:08:39;;;;;;;52.17;29.50;;;5.60;99.90;;;;;;5074132;28;20250;-77
2022/03/21 03:11:04;;;;;;;53.58;28.35;;;5.50;99.90;;;;;;5085025;28;20236;-78
2022/03/21 03:13:30;;;;;;;46.92;28.95;;;5.40;99.90;;;;;;5080370;28;20167;-84
2022/03/21 03:15:56;;;;;;;52.03;29.60;;;5.30;99.90;;;;;;5072966;28;20178;-80
2022/03/21 03:18:22;;;;;;;46.38;27.30;;;5.20;99.90;;;;;;5072877;28;20158;-77
2022/03/21 03:20:55;;;;;;;53.92;30.15;;;5.20;99.90;;;;;;5072691;28;20211;-85
2022/03/21 03:23:23;;;;;;;46.03;27.67;;;5.20;99.90;;;;;;5072629;28;20257;-81
2022/03/21 03:25:58;;;;;;;47.65;28.40;;;5.20;99.90;;;;;;5072791;28;20169;-81
2022/03/21 03:28:25;;;;;;;55.67;29.00;;;5.10;99.90;;;;;;5074130;28;20613;-84
2022/03/21 03:30:50;;;;;;;50.03;29.02;;;5.10;99.90;;;;;;5075755;28;20158;-82
2022/03/21 03:33:18;;;;;;;42.60;27.23;;;5.20;99.90;;;;;;5076345;28;20182;-77
2022/03/21 03:35:43;;;;;;;48.58;27.92;;;5.20;99.90;;;;;;5076347;28;20531;-76
2022/03/21 03:38:09;;;;;;;47.30;27.05;;;5.10;99.90;;;;;;5075780;28;20190;-82
2022/03/21 03:40:34;;;;;;;46.05;28.30;;;5.10;99.90;;;;;;5075986;28;20693;-83
2022/03/21 03:43:00;;;;;;;51.05;28.73;;;5.10;99.90;;;;;;5075775;28;20220;-82
2022/03/21 03:45:26;;;;;;;46.78;27.70;;;5.10;99.90;;;;;;5076219;28;20172;-84
2022/03/21 03:47:52;;;;;;;48.78;28.45;;;5.10;99.90;;;;;;5075864;28;20186;-83
2022/03/21 03:50:19;;;;;;;43.97;27.25;;;5.20;99.90;;;;;;5076021;28;20161;-84
2022/03/21 03:52:48;;;;;;;47.25;29.17;;;5.20;99.90;;;;;;5076606;28;20190;-77
2022/03/21 03:55:17;;;;;;;54.70;27.55;;;5.20;99.90;;;;;;5075959;28;20249;-80
2022/03/21 03:57:46;;;;;;;46.55;27.95;;;5.10;99.90;;;;;;5075693;28;20706;-77
2022/03/21 04:00:14;;;;;;;51.28;28.23;;;5.10;99.90;;;;;;5075751;28;20205;-83
2022/03/21 04:05:25;;;;;;;44.45;27.17;;;5.20;99.90;;;;;;5075726;28;20185;-76
2022/03/21 04:07:51;;;;;;;47.75;27.17;;;5.40;99.90;;;;;;5075596;28;20179;-84
2022/03/21 04:10:17;;;;;;;49.53;27.08;;;5.50;99.90;;;;;;5075886;28;20167;-77
2022/03/21 04:12:47;;;;;;;50.88;28.52;;;5.50;99.90;;;;;;5073990;28;20171;-78
2022/03/21 04:15:13;;;;;;;52.38;29.83;;;5.50;99.90;;;;;;5075991;28;20173;-79
2022/03/21 04:17:39;;;;;;;45.72;26.25;;;5.40;99.90;;;;;;5074543;28;20190;-84
2022/03/21 04:20:05;;;;;;;47.97;27.17;;;5.30;99.90;;;;;;5075385;28;20664;-79
2022/03/21 04:22:32;;;;;;;49.50;26.70;;;5.20;99.90;;;;;;5075469;28;20656;-85
2022/03/21 04:24:58;;;;;;;52.67;26.25;;;5.20;99.90;;;;;;5075658;28;20186;-78
2022/03/21 04:27:23;;;;;;;44.78;27.75;;;5.10;99.90;;;;;;5075395;28;20243;-78
2022/03/21 04:29:49;;;;;;;51.90;27.35;;;5.00;99.90;;;;;;5075433;28;20213;-78
2022/03/21 04:32:14;;;;;;;40.08;27.13;;;5.10;99.90;;;;;;5075278;28;20175;-81
2022/03/21 04:34:40;;;;;;;45.72;25.95;;;5.10;99.90;;;;;;5075180;28;20241;-84
2022/03/21 04:37:06;;;;;;;48.22;26.35;;;5.20;99.90;;;;;;5074705;28;20213;-85
2022/03/21 04:39:31;;;;;;;46.30;26.88;;;5.20;99.90;;;;;;5075155;28;20246;-81
2022/03/21 04:41:58;;;;;;;42.80;26.80;;;5.20;99.90;;;;;;5074826;28;20252;-78
2022/03/21 04:44:23;;;;;;;43.70;25.40;;;5.20;99.90;;;;;;5075068;28;20654;-85
2022/03/21 04:46:49;;;;;;;41.97;26.15;;;5.10;99.90;;;;;;5074778;28;20190;-86
2022/03/21 04:49:14;;;;;;;47.75;25.85;;;5.00;99.90;;;;;;5074888;28;20190;-78
2022/03/21 04:51:40;;;;;;;41.72;26.90;;;4.90;99.90;;;;;;5074834;28;20504;-78
2022/03/21 04:54:06;;;;;;;44.08;25.02;;;5.00;99.90;;;;;;5074897;28;20198;-77
2022/03/21 04:56:31;;;;;;;65.13;25.48;;;5.00;99.90;;;;;;5074225;28;20594;-77
2022/03/21 04:58:57;;;;;;;42.38;25.50;;;5.00;99.90;;;;;;5072744;28;20619;-84
2022/03/21 05:01:23;;;;;;;44.60;24.35;;;5.00;99.90;;;;;;5074587;28;20206;-86
2022/03/21 05:03:49;;;;;;;44.85;25.27;;;5.10;99.90;;;;;;5074891;28;20159;-83
2022/03/21 05:06:16;;;;;;;39.40;24.83;;;5.00;99.90;;;;;;5075028;28;20186;-82
2022/03/21 05:08:42;;;;;;;49.28;25.70;;;5.00;99.90;;;;;;5074687;28;20293;-86
2022/03/21 05:11:08;;;;;;;43.90;25.27;;;5.10;99.90;;;;;;5074213;28;20174;-82
2022/03/21 05:13:34;;;;;;;41.58;25.50;;;5.00;99.90;;;;;;5074508;28;20162;-78
2022/03/21 05:16:00;;;;;;;43.90;25.83;;;5.10;99.90;;;;;;5074797;28;20245;-82
2022/03/21 05:18:27;;;;;;;38.65;23.55;;;5.20;99.90;;;;;;5074496;28;20200;-81
2022/03/21 05:20:52;;;;;;;41.75;24.38;;;5.30;99.90;;;;;;5074614;28;20202;-86
2022/03/21 05:31:30;;;;;;;39.17;22.98;;;5.00;99.90;;;;;;5084640;28;20307;-81
2022/03/21 05:36:40;;;;;;;35.20;22.33;;;5.10;99.90;;;;;;5089921;28;20280;-82
2022/03/21 05:39:06;;;;;;;44.63;22.85;;;5.10;99.90;;;;;;5086291;28;20191;-85
2022/03/21 05:41:31;;;;;;;83.90;24.83;;;5.00;99.90;;;;;;5076698;28;20209;-85
2022/03/21 05:43:57;;;;;;;66.30;24.40;;;5.00;99.90;;;;;;5075977;28;20167;-80
2022/03/21 05:46:22;;;;;;;68.63;24.05;;;4.90;99.90;;;;;;5079071;28;20244;-78
2022/03/21 05:48:52;;;;;;;46.35;21.85;;;5.10;99.90;;;;;;5080852;28;20226;-80
2022/03/21 05:51:31;;;;;;;36.25;21.95;;;5.20;99.90;;;;;;5072791;28;20166;-77
2022/03/21 05:53:59;;;;;;;41.03;23.15;;;5.10;99.90;;;;;;5073072;28;20224;-79
2022/03/21 05:56:25;;;;;;;37.08;20.42;;;5.00;99.90;;;;;;5072774;28;20252;-77
2022/03/21 05:58:52;;;;;;;39.13;21.63;;;5.00;99.90;;;;;;5072610;28;20169;-80
2022/03/21 06:01:21;;;;;;;42.78;22.75;;;5.10;99.90;;;;;;5071772;28;20586;-77
2022/03/21 06:03:48;;;;;;;33.92;20.45;;;5.10;99.90;;;;;;5072961;28;20240;-77
2022/03/21 06:06:15;;;;;;;39.22;22.67;;;5.20;99.90;;;;;;5072615;28;20729;-76
2022/03/21 06:08:41;;;;;;;36.67;21.77;;;5.10;99.90;;;;;;5072965;28;20173;-82
2022/03/21 06:11:08;;;;;;;39.45;21.75;;;5.20;99.90;;;;;;5072704;28;20174;-77
2022/03/21 06:13:36;;;;;;;36.80;21.48;;;5.30;99.90;;;;;;5072813;28;20154;-76
2022/03/21 06:16:06;;;;;;;32.88;20.70;;;5.40;99.90;;;;;;5072826;28;20646;-76
2022/03/21 06:18:32;;;;;;;34.95;19.90;;;5.50;99.90;;;;;;5072470;28;20171;-78
2022/03/21 06:21:04;;;;;;;35.33;19.55;;;5.50;99.90;;;;;;5071292;28;20616;-81
2022/03/21 06:23:30;;;;;;;42.50;20.58;;;5.50;99.90;;;;;;5072978;28;20173;-81
2022/03/21 06:25:58;;;;;;;37.72;21.17;;;5.70;99.90;;;;;;5073060;28;20185;-79
2022/03/21 06:28:25;;;;;;;35.85;19.95;;;5.80;99.90;;;;;;5072397;28;20163;-80
2022/03/21 06:30:51;;;;;;;35.38;20.20;;;6.00;99.90;;;;;;5072330;28;20631;-78
2022/03/21 06:33:24;;;;;;;34.17;20.35;;;5.80;99.90;;;;;;5072836;28;20518;-76
2022/03/21 06:35:50;;;;;;;53.30;21.05;;;6.00;99.90;;;;;;5072481;28;20262;-76
2022/03/21 06:38:17;;;;;;;36.45;20.52;;;5.90;99.90;;;;;;5072817;28;20570;-82
2022/03/21 06:40:42;;;;;;;35.42;20.77;;;5.90;99.90;;;;;;5072848;28;20198;-83
2022/03/21 06:43:09;;;;;;;43.50;21.67;;;6.00;99.90;;;;;;5071442;28;20211;-77
2022/03/21 06:45:35;;;;;;;40.53;19.90;;;6.10;99.90;;;;;;5072720;28;20220;-77
2022/03/21 06:48:01;;;;;;;41.83;20.42;;;6.20;99.90;;;;;;5072524;28;20736;-80
2022/03/21 06:50:27;;;;;;;49.60;20.00;;;6.30;99.90;;;;;;5072697;28;20175;-77
2022/03/21 06:52:53;;;;;;;35.45;19.40;;;6.50;99.90;;;;;;5072264;28;20494;-77
2022/03/21 06:55:20;;;;;;;35.80;18.73;;;6.50;99.90;;;;;;5072273;28;20198;-81
2022/03/21 06:57:46;;;;;;;40.65;21.42;;;6.60;99.90;;;;;;5078027;28;20196;-87
2022/03/21 07:00:13;;;;;;;35.38;21.80;;;6.80;99.90;;;;;;5070880;28;20527;-77
2022/03/21 07:02:40;;;;;;;35.35;19.48;;;6.80;99.90;;;;;;5073041;28;20178;-77
2022/03/21 07:05:07;;;;;;;35.47;19.98;;;7.00;99.90;;;;;;5076163;28;20988;-78
2022/03/21 07:07:33;;;;;;;37.17;20.60;;;7.10;99.90;;;;;;5076522;28;20187;-79
2022/03/21 07:09:59;;;;;;;51.70;21.52;;;7.40;99.90;;;;;;5076015;28;20161;-78
2022/03/21 07:12:25;;;;;;;40.22;20.73;;;7.50;99.90;;;;;;5075870;28;20171;-83
2022/03/21 07:14:53;;;;;;;40.08;21.00;;;7.50;99.90;;;;;;5076137;28;20192;-81
2022/03/21 07:17:20;;;;;;;42.35;20.77;;;7.60;99.90;;;;;;5075658;28;20206;-78
2022/03/21 07:19:46;;;;;;;41.83;21.05;;;7.80;99.90;;;;;;5075606;28;20178;-86
2022/03/21 07:22:12;;;;;;;35.05;19.88;;;7.90;99.90;;;;;;5076080;28;20233;-82
2022/03/21 07:24:38;;;;;;;31.50;18.55;;;8.00;99.90;;;;;;5075508;28;20472;-78
2022/03/21 07:27:04;;;;;;;38.88;20.08;;;8.10;99.90;;;;;;5075438;28;20675;-78
2022/03/21 07:29:30;;;;;;;36.58;19.40;;;8.10;99.90;;;;;;5075584;28;20270;-77
2022/03/21 07:31:57;;;;;;;43.60;20.13;;;8.00;99.90;;;;;;5075169;28;20686;-78
2022/03/21 07:34:23;;;;;;;35.63;18.92;;;8.00;99.90;;;;;;5075930;28;20171;-81
2022/03/21 07:36:49;;;;;;;53.15;20.10;;;8.20;99.90;;;;;;5075675;28;20520;-81
2022/03/21 07:39:14;;;;;;;41.65;21.10;;;8.20;99.90;;;;;;5075639;28;20170;-80
2022/03/21 07:41:40;;;;;;;35.78;20.42;;;8.40;99.90;;;;;;5076365;28;20206;-80
2022/03/21 07:44:09;;;;;;;42.03;20.95;;;8.50;99.90;;;;;;5075398;28;20410;-86
2022/03/21 07:49:19;;;;;;;47.50;21.02;;;8.70;99.90;;;;;;5075522;28;20185;-82
2022/03/21 07:51:44;;;;;;;54.10;22.88;;;8.70;99.90;;;;;;5074270;28;20178;-83
2022/03/21 07:54:14;;;;;;;38.33;20.17;;;8.70;99.90;;;;;;5075722;28;20573;-78
2022/03/21 07:56:41;;;;;;;68.55;37.80;;;8.70;99.90;;;;;;5073742;28;20281;-81
2022/03/21 07:59:06;;;;;;;45.97;24.33;;;8.80;99.90;;;;;;5075028;28;20170;-85
2022/03/21 08:01:33;;;;;;;46.72;20.95;;;9.00;99.90;;;;;;5075639;28;20704;-79
2022/03/21 08:04:00;;;;;;;28.13;17.63;;;9.20;99.90;;;;;;5075800;28;20665;-82
2022/03/21 08:06:27;;;;;;;36.58;18.25;;;9.40;99.90;;;;;;5071484;28;20309;-86
2022/03/21 08:08:54;;;;;;;35.25;20.58;;;9.60;99.90;;;;;;5076045;28;20175;-82
2022/03/21 08:11:21;;;;;;;42.72;25.08;;;9.70;99.90;;;;;;5076711;28;20535;-82
2022/03/21 08:13:49;;;;;;;32.38;20.25;;;9.70;99.90;;;;;;5075337;28;20171;-79
2022/03/21 08:16:19;;;;;;;57.75;29.52;;;10.00;99.90;;;;;;5076517;28;20214;-85
2022/03/21 08:18:48;;;;;;;44.50;21.27;;;10.20;99.90;;;;;;5086007;28;20177;-83
2022/03/21 08:21:14;;;;;;;42.33;18.42;;;10.40;99.90;;;;;;5093795;28;20216;-85
2022/03/21 08:23:42;;;;;;;40.20;18.63;;;10.70;99.90;;;;;;5095143;28;20166;-83
2022/03/21 08:26:12;;;;;;;36.33;19.40;;;10.80;99.90;;;;;;5078729;28;20194;-79
2022/03/21 08:28:38;;;;;;;42.22;18.35;;;11.00;99.90;;;;;;5077829;28;20246;-80
2022/03/21 08:31:03;;;;;;;33.85;17.30;;;11.00;99.90;;;;;;5074465;28;20934;-84
2022/03/21 08:33:29;;;;;;;34.15;18.73;;;11.00;99.90;;;;;;5074346;28;20166;-83
2022/03/21 08:35:55;;;;;;;35.90;17.45;;;11.20;99.90;;;;;;5072839;28;20182;-82
2022/03/21 08:38:20;;;;;;;31.80;15.65;;;11.50;99.90;;;;;;5073953;28;20162;-87
2022/03/21 08:40:47;;;;;;;34.47;18.02;;;11.40;99.90;;;;;;5073912;28;20329;-83
2022/03/21 08:43:12;;;;;;;28.75;16.55;;;11.40;99.90;;;;;;5066647;28;20224;-79
2022/03/21 08:45:40;;;;;;;40.20;16.60;;;11.50;99.90;;;;;;5077361;28;20174;-83
2022/03/21 08:48:05;;;;;;;35.05;16.73;;;11.70;99.90;;;;;;5080462;28;20197;-79
2022/03/21 08:50:34;;;;;;;25.65;15.55;;;11.90;99.90;;;;;;5074770;28;20171;-81
2022/03/21 08:53:00;;;;;;;43.80;16.52;;;11.90;99.90;;;;;;5061472;28;20171;-79
2022/03/21 08:55:26;;;;;;;29.33;16.05;;;12.10;99.90;;;;;;5069530;28;20254;-80
2022/03/21 08:57:52;;;;;;;37.08;15.95;;;12.10;99.90;;;;;;5070982;28;20197;-79
2022/03/21 09:00:18;;;;;;;26.05;15.35;;;12.20;99.90;;;;;;5072988;28;20166;-80
2022/03/21 09:02:46;;;;;;;34.53;15.52;;;12.20;99.90;;;;;;5068143;28;20170;-80
2022/03/21 09:05:12;;;;;;;40.80;23.48;;;12.30;99.90;;;;;;5070974;28;20289;-82
2022/03/21 09:07:39;;;;;;;39.60;19.45;;;12.50;99.90;;;;;;5072889;28;20210;-81
2022/03/21 09:10:06;;;;;;;39.42;17.90;;;12.60;99.90;;;;;;5073056;28;20166;-82
2022/03/21 09:12:32;;;;;;;51.15;23.90;;;12.80;99.90;;;;;;5073194;28;20185;-84
2022/03/21 09:14:59;;;;;;;34.60;14.38;;;12.90;99.90;;;;;;5069533;28;20162;-84
2022/03/21 09:17:26;;;;;;;35.45;16.70;;;12.90;99.90;;;;;;5052689;28;20260;-87
2022/03/21 09:19:52;;;;;;;31.63;15.23;;;13.10;99.90;;;;;;5067033;28;20542;-83
2022/03/21 09:22:17;;;;;;;37.70;16.45;;;13.30;99.90;;;;;;5074363;28;20206;-82
2022/03/21 09:24:43;;;;;;;37.85;17.13;;;13.40;99.90;;;;;;5073645;28;20665;-86
2022/03/21 09:27:10;;;;;;;36.38;20.00;;;13.50;99.90;;;;;;5070927;28;20677;-80
2022/03/21 09:29:36;;;;;;;40.15;19.35;;;13.70;99.90;;;;;;5071457;28;20201;-85
2022/03/21 09:32:02;;;;;;;26.88;15.15;;;13.70;99.90;;;;;;5071829;28;20206;-80
2022/03/21 09:34:28;;;;;;;28.27;14.38;;;13.80;99.90;;;;;;5073137;28;20676;-84
2022/03/21 09:36:54;;;;;;;27.33;15.30;;;14.00;99.90;;;;;;5071240;28;20198;-81
2022/03/21 09:39:20;;;;;;;30.60;15.80;;;14.00;99.90;;;;;;5072997;28;20163;-85
2022/03/21 09:41:47;;;;;;;25.45;13.55;;;14.20;99.90;;;;;;5071751;28;20210;-78
2022/03/21 09:44:13;;;;;;;24.75;13.13;;;14.20;99.90;;;;;;5071617;28;20174;-79
2022/03/21 09:46:41;;;;;;;26.73;13.13;;;14.20;99.90;;;;;;5072712;28;20198;-80
2022/03/21 09:49:10;;;;;;;29.70;14.90;;;14.30;99.90;;;;;;5072853;28;20407;-79
2022/03/21 09:51:36;;;;;;;23.80;13.25;;;14.40;99.90;;;;;;5073456;28;20170;-78
2022/03/21 09:54:03;;;;;;;15.93;11.85;;;14.50;99.90;;;;;;5076779;28;20171;-77
2022/03/21 09:56:29;;;;;;;26.85;13.00;;;14.60;99.90;;;;;;5086854;28;20175;-80
2022/03/21 09:59:02;;;;;;;25.25;13.60;;;14.70;99.90;;;;;;5088294;28;20191;-81
2022/03/21 10:01:29;;;;;;;14.93;11.02;;;14.80;99.90;;;;;;5088335;28;20259;-84
2022/03/21 10:03:55;;;;;;;23.02;12.85;;;15.00;99.90;;;;;;5076478;28;20203;-76
2022/03/21 10:06:39;;;;;;;42.90;14.77;;;15.00;99.90;;;;;;5072831;28;20186;-78
2022/03/21 10:09:06;;;;;;;24.85;14.98;;;14.90;99.90;;;;;;5073123;28;20266;-81
2022/03/21 10:11:32;;;;;;;28.83;13.45;;;15.00;99.90;;;;;;5072402;28;20162;-81
2022/03/21 10:14:00;;;;;;;27.33;12.90;;;15.00;99.90;;;;;;5071293;28;20194;-83
2022/03/21 10:16:26;;;;;;;34.33;14.43;;;14.90;99.90;;;;;;5071548;28;20217;-78
2022/03/21 10:18:55;;;;;;;18.75;13.50;;;14.80;99.90;;;;;;5071541;28;20582;-77
2022/03/21 10:21:22;;;;;;;17.70;12.05;;;14.90;99.90;;;;;;5069907;28;20236;-82
2022/03/21 10:24:07;;;;;;;18.23;13.13;;;14.60;99.90;;;;;;5072079;28;20181;-77
2022/03/21 10:26:41;;;;;;;22.58;12.35;;;14.60;99.90;;;;;;5070123;28;20222;-81
2022/03/21 10:29:10;;;;;;;19.70;12.35;;;14.70;99.90;;;;;;5071860;28;20158;-77
2022/03/21 10:31:45;;;;;;;25.23;12.48;;;14.90;99.90;;;;;;5068035;28;20235;-77
2022/03/21 10:34:12;;;;;;;16.30;11.77;;;15.10;99.90;;;;;;5069182;28;20178;-77
2022/03/21 10:37:01;;;;;;;20.02;12.40;;;15.10;99.90;;;;;;5072031;28;20194;-77
2022/03/21 10:39:28;;;;;;;24.33;12.00;;;15.30;99.90;;;;;;5076016;28;20205;-79
2022/03/21 10:41:59;;;;;;;20.42;12.68;;;15.30;99.90;;;;;;5076137;28;20311;-79
2022/03/21 10:44:25;;;;;;;22.05;11.88;;;15.50;99.90;;;;;;5075632;28;20211;-78
2022/03/21 10:46:55;;;;;;;23.83;12.30;;;15.50;99.90;;;;;;5075515;28;20190;-78
2022/03/21 10:49:30;;;;;;;19.98;13.23;;;15.60;99.90;;;;;;5075579;28;20209;-77
2022/03/21 10:51:56;;;;;;;21.05;11.80;;;15.50;99.90;;;;;;5075879;28;20810;-80
2022/03/21 10:54:41;;;;;;;18.33;12.27;;;15.50;99.90;;;;;;5077510;28;20654;-79
2022/03/21 10:57:31;;;;;;;22.17;12.43;;;15.60;99.90;;;;;;5082178;28;20182;-80
2022/03/21 11:00:23;;;;;;;24.48;11.63;;;15.60;99.90;;;;;;5083005;28;20186;-84
2022/03/21 11:03:12;;;;;;;21.40;11.40;;;15.60;99.90;;;;;;5081670;28;20174;-80
2022/03/21 11:05:48;;;;;;;25.30;13.30;;;15.90;99.90;;;;;;5078946;28;20163;-85
2022/03/21 11:08:19;;;;;;;15.38;10.90;;;16.00;99.90;;;;;;5078282;28;20162;-80
2022/03/21 11:10:47;;;;;;;22.88;11.18;;;16.20;99.90;;;;;;5079913;28;20496;-79
2022/03/21 11:13:13;;;;;;;17.80;10.43;;;16.40;99.90;;;;;;5077482;28;20159;-79
2022/03/21 11:15:40;;;;;;;15.68;11.40;;;16.40;99.90;;;;;;5078476;28;20175;-79
2022/03/21 11:18:07;;;;;;;17.83;10.48;;;16.50;99.90;;;;;;5075816;28;20710;-83
2022/03/21 11:20:33;;;;;;;19.90;11.02;;;16.50;99.90;;;;;;5075775;28;20309;-83
2022/03/21 11:23:00;;;;;;;17.52;10.18;;;16.60;99.90;;;;;;5077316;28;20191;-85
2022/03/21 11:25:35;;;;;;;15.02;11.00;;;16.50;99.90;;;;;;5078598;28;20162;-82
2022/03/21 11:28:08;;;;;;;15.43;10.73;;;16.50;99.90;;;;;;5076615;28;20543;-80
2022/03/21 11:31:02;;;;;;;17.55;9.70;;;16.60;99.90;;;;;;5074800;28;20532;-80
2022/03/21 11:33:35;;;;;;;23.48;10.90;;;16.50;99.90;;;;;;5074406;28;20181;-79
2022/03/21 11:36:04;;;;;;;19.60;10.50;;;16.50;99.90;;;;;;5075214;28;20170;-83
2022/03/21 11:38:34;;;;;;;18.00;11.05;;;16.70;99.90;;;;;;5076422;28;20167;-79
2022/03/21 11:41:24;;;;;;;16.30;10.88;;;16.80;99.90;;;;;;5081077;28;20202;-80
2022/03/21 11:44:08;;;;;;;20.25;11.30;;;16.70;99.90;;;;;;5075640;28;20589;-79
2022/03/21 11:46:36;;;;;;;14.35;9.85;;;16.50;99.90;;;;;;5072815;28;20327;-87
2022/03/21 11:49:22;;;;;;;19.95;10.63;;;16.60;99.90;;;;;;5074184;28;20166;-79
2022/03/21 11:51:56;;;;;;;19.73;9.60;;;16.70;99.90;;;;;;5080006;28;20256;-79
2022/03/21 11:54:38;;;;;;;16.92;10.13;;;16.80;99.90;;;;;;5076131;28;20166;-80
2022/03/21 11:57:06;;;;;;;14.60;9.27;;;16.80;99.90;;;;;;5076797;28;20182;-79
2022/03/21 11:59:32;;;;;;;19.10;10.55;;;17.00;99.90;;;;;;5076032;28;20163;-79
2022/03/21 12:02:20;;;;;;;18.88;10.60;;;17.00;99.90;;;;;;5076318;28;20792;-91
2022/03/21 12:04:59;;;;;;;21.30;10.05;;;16.80;99.90;;;;;;5061053;28;20639;-87
2022/03/21 12:07:25;;;;;;;25.40;10.80;;;16.90;99.90;;;;;;5074473;28;20194;-78
2022/03/21 12:09:55;;;;;;;14.25;10.35;;;17.10;99.90;;;;;;5076390;28;20170;-78
2022/03/21 12:12:39;;;;;;;16.40;10.20;;;17.20;99.90;;;;;;5078261;28;20163;-79
2022/03/21 12:15:17;;;;;;;16.85;9.98;;;17.30;99.90;;;;;;5075617;28;20650;-84
2022/03/21 12:17:48;;;;;;;14.63;10.15;;;17.20;99.90;;;;;;5074901;28;20217;-79
2022/03/21 12:20:18;;;;;;;16.67;10.23;;;17.30;99.90;;;;;;5074736;28;20647;-79
2022/03/21 12:22:47;;;;;;;14.65;9.85;;;17.60;99.90;;;;;;5077279;28;20175;-80
2022/03/21 12:25:41;;;;;;;17.08;9.35;;;17.70;99.90;;;;;;5075403;28;20166;-80
2022/03/21 12:29:31;;;;;;;22.75;9.60;;;17.60;99.90;;;;;;5077178;28;20194;-79
2022/03/21 12:31:23;;;;;;;14.40;9.48;;;17.60;99.90;;;;;;5078305;28;20170;-79
2022/03/21 12:33:49;;;;;;;17.60;10.13;;;17.50;99.90;;;;;;5077097;28;20235;-81
2022/03/21 12:36:30;;;;;;;19.95;9.70;;;17.60;99.90;;;;;;5076089;28;20179;-79
2022/03/21 12:38:56;;;;;;;27.17;9.48;;;17.80;99.90;;;;;;5076490;28;20210;-81
2022/03/21 12:41:31;;;;;;;15.32;8.70;;;17.90;99.90;;;;;;5077445;28;20241;-82
2022/03/21 12:43:56;;;;;;;23.52;8.93;;;18.00;99.90;;;;;;5074457;28;20158;-79
2022/03/21 12:46:23;;;;;;;17.80;9.52;;;18.20;99.90;;;;;;5077581;28;20239;-81
2022/03/21 12:48:55;;;;;;;17.95;9.18;;;18.40;99.90;;;;;;5076812;28;20169;-78
2022/03/21 12:51:25;;;;;;;22.13;8.60;;;18.50;99.90;;;;;;5075292;28;20166;-81
2022/03/21 12:53:51;;;;;;;26.73;10.10;;;18.60;99.90;;;;;;5078045;28;20253;-80
2022/03/21 12:56:20;;;;;;;15.48;10.00;;;18.50;99.90;;;;;;5077620;28;20565;-78
2022/03/21 12:58:47;;;;;;;17.48;8.90;;;18.50;99.90;;;;;;5077333;28;20694;-78